Bidwell, Ohio
Current Conditions -  °F | °C
As of 4:35 PM on Wednesday 17 Dec 2014 (Local Time) from K3I2 Reporting Station
Overcast Overcast  
Wind Chill: 36°   Ceiling: 2900
Heat Index: 36°   Visibility: 10mi
Dew Point: 28°   Wind: 0mph
Humidity: 75%   Direction: NA
Pressure: 30.19"   Gusts: NA
Location:  38.92°N, 82.3°W
Report Text: K3I2 172135Z AUTO 00000KT 10SM SCT023 OVC029 02/M02 A3019 RMK AO2
Loading
Personal Weather Stations






























Interactive Weather Map New forecast layout! Learn more

10-Day Weather Forecast

Advertisements
Track Severe Weather on mobile